Time;durP1;ratioP1;P1;durP2;ratioP2;P2;SDS_P1;SDS_P2;PMS_P1;PMS_P2;Temp;Humidity;BMP_temperature;BMP_pressure;BME280_temperature;BME280_humidity;BME280_pressure;Samples;Min_cycle;Max_cycle;Signal;HPM_P1;HPM_P2
2021/11/28 00:00:11;;;;;;;5.25;1.15;;;;;;;-149.78;100.00;50596.63;5033061;28;20517;-64
2021/11/28 00:02:38;;;;;;;1.90;1.02;;;;;;;-149.78;100.00;50594.66;5032513;28;20033;-64
2021/11/28 00:05:05;;;;;;;6.45;1.25;;;;;;;-149.78;100.00;50608.34;5032414;28;20136;-64
2021/11/28 00:13:00;;;;;;;8.57;1.52;;;;;;;-149.78;100.00;50584.88;5029484;28;20041;-65
2021/11/28 00:15:26;;;;;;;5.10;1.40;;;;;;;-149.78;100.00;50579.00;5024253;28;20029;-64
2021/11/28 00:17:52;;;;;;;3.60;1.40;;;;;;;-149.78;100.00;50545.75;5032403;28;20033;-64
2021/11/28 00:20:18;;;;;;;6.88;1.40;;;;;;;-149.78;100.00;50561.41;5027850;28;20450;-64
2021/11/28 00:22:44;;;;;;;3.25;1.20;;;;;;;-149.78;100.00;50580.97;5032951;28;20037;-64
2021/11/28 00:25:13;;;;;;;7.10;1.20;;;;;;;-149.78;100.00;50584.88;5034117;28;20543;-64
2021/11/28 00:27:40;;;;;;;4.70;1.20;;;;;;;-149.78;100.00;50557.50;5032853;28;20104;-64
2021/11/28 00:30:10;;;;;;;8.05;1.25;;;;;;;-149.78;100.00;50582.94;5032621;28;20052;-64
2021/11/28 00:32:36;;;;;;;8.15;1.50;;;;;;;-149.78;100.00;50543.81;5028303;28;20042;-64
2021/11/28 00:35:02;;;;;;;9.23;2.28;;;;;;;-149.78;100.00;50545.75;5032653;28;20116;-64
2021/11/28 00:37:28;;;;;;;11.60;1.58;;;;;;;-149.78;100.00;50577.06;5032675;28;20477;-64
2021/11/28 00:39:54;;;;;;;12.90;2.20;;;;;;;-149.78;100.00;50590.75;5032886;28;20083;-64
2021/11/28 00:42:20;;;;;;;7.28;2.45;;;;;;;-149.78;100.00;50584.88;5030852;28;20034;-64
2021/11/28 00:44:46;;;;;;;3.45;1.40;;;;;;;-149.78;100.00;50553.59;5030555;28;20544;-64
2021/11/28 00:47:12;;;;;;;3.95;1.17;;;;;;;-149.78;100.00;50557.50;5035899;28;20037;-64
2021/11/28 00:49:38;;;;;;;6.18;1.40;;;;;;;-149.78;100.00;50553.59;5038684;28;20033;-64
2021/11/28 00:52:05;;;;;;;4.93;1.60;;;;;;;-149.78;100.00;50588.78;5031686;28;20500;-64
2021/11/28 00:54:31;;;;;;;4.60;1.67;;;;;;;-149.78;100.00;50590.75;5032396;28;20473;-64
2021/11/28 00:56:58;;;;;;;11.10;1.02;;;;;;;-149.78;100.00;50565.31;5031891;28;20059;-64
2021/11/28 00:59:24;;;;;;;4.93;1.38;;;;;;;-149.78;100.00;50549.69;5031599;28;20160;-64
2021/11/28 01:01:50;;;;;;;8.27;1.63;;;;;;;-149.78;100.00;50541.84;5031097;28;20487;-64
2021/11/28 01:04:17;;;;;;;5.03;0.95;;;;;;;-149.78;100.00;50584.88;5031892;28;20368;-64
2021/11/28 01:06:44;;;;;;;7.45;1.40;;;;;;;-149.78;100.00;50557.50;5033620;28;20037;-64
2021/11/28 01:09:11;;;;;;;4.22;1.33;;;;;;;-149.78;100.00;50573.16;5027866;28;20042;-64
2021/11/28 01:11:36;;;;;;;4.63;1.40;;;;;;;-149.78;100.00;50569.22;5030761;28;20033;-64
2021/11/28 01:14:03;;;;;;;3.05;1.30;;;;;;;-149.78;100.00;50557.50;5028506;28;20339;-64
2021/11/28 01:16:30;;;;;;;5.03;1.00;;;;;;;-149.78;100.00;50549.69;5031267;28;20025;-64
2021/11/28 01:18:56;;;;;;;3.90;1.02;;;;;;;-149.78;100.00;50573.16;5031769;28;20037;-64
2021/11/28 01:21:23;;;;;;;12.80;1.10;;;;;;;-149.78;100.00;50604.44;5028541;28;20037;-64
2021/11/28 01:23:49;;;;;;;3.20;1.00;;;;;;;-149.78;100.00;50588.78;5028889;28;20069;-64
2021/11/28 01:26:15;;;;;;;4.63;1.10;;;;;;;-149.78;100.00;50541.84;5031482;28;20037;-64
2021/11/28 01:28:42;;;;;;;5.15;1.02;;;;;;;-149.78;100.00;50557.50;5031160;28;20029;-64
2021/11/28 01:31:08;;;;;;;6.15;1.60;;;;;;;-149.78;100.00;50561.41;5032030;28;20084;-64
2021/11/28 01:33:33;;;;;;;4.50;1.50;;;;;;;-149.78;100.00;50573.16;5033393;28;20037;-64
2021/11/28 01:35:59;;;;;;;4.82;1.23;;;;;;;-149.78;100.00;50553.59;5031368;28;20037;-64
2021/11/28 01:38:26;;;;;;;5.78;1.00;;;;;;;-149.78;100.00;50588.78;5030636;28;20554;-64
2021/11/28 01:40:53;;;;;;;2.92;1.20;;;;;;;-149.78;100.00;50592.72;5032013;28;20045;-64
2021/11/28 01:43:19;;;;;;;6.75;1.17;;;;;;;-149.78;100.00;50573.16;5034404;28;20113;-64
2021/11/28 01:45:50;;;;;;;3.15;0.98;;;;;;;-149.78;100.00;50545.75;5033625;28;20035;-64
2021/11/28 01:48:18;;;;;;;4.40;1.20;;;;;;;-149.78;100.00;50596.63;5034647;28;20403;-64
2021/11/28 01:50:47;;;;;;;5.30;0.82;;;;;;;-149.78;100.00;50557.50;5028802;28;20717;-64
2021/11/28 01:53:19;;;;;;;5.07;1.25;;;;;;;-149.78;100.00;50577.06;5035259;28;20029;-64
2021/11/28 01:55:46;;;;;;;8.40;1.55;;;;;;;-149.78;100.00;50577.06;5036924;28;20026;-64
2021/11/28 01:58:12;;;;;;;4.05;0.95;;;;;;;-149.78;100.00;50561.41;5035612;28;20116;-64
2021/11/28 02:00:47;;;;;;;2.40;0.90;;;;;;;-149.78;100.00;50551.63;5026533;28;20030;-64
2021/11/28 02:03:15;;;;;;;5.88;1.00;;;;;;;-149.78;100.00;50563.38;5033195;28;20031;-64
2021/11/28 02:05:45;;;;;;;5.78;1.30;;;;;;;-149.78;100.00;50561.41;5034506;28;20091;-64
2021/11/28 02:08:10;;;;;;;4.18;1.33;;;;;;;-149.78;100.00;50565.31;5035435;28;20033;-64
2021/11/28 02:10:37;;;;;;;3.92;1.02;;;;;;;-149.78;100.00;50590.75;5034301;28;20049;-64
2021/11/28 02:13:04;;;;;;;3.35;1.30;;;;;;;-149.78;100.00;50596.63;5035119;28;20037;-64
2021/11/28 02:15:30;;;;;;;3.13;1.30;;;;;;;-149.78;100.00;50545.75;5034361;28;20099;-64
2021/11/28 02:17:56;;;;;;;3.80;1.00;;;;;;;-149.78;100.00;50577.06;5035088;28;20029;-64
2021/11/28 02:20:26;;;;;;;1.42;0.98;;;;;;;-149.78;100.00;50592.72;5037528;28;20395;-64
2021/11/28 02:22:53;;;;;;;6.55;1.00;;;;;;;-149.78;100.00;50555.53;5035075;28;20429;-64
2021/11/28 02:25:19;;;;;;;3.42;1.05;;;;;;;-149.78;100.00;50541.84;5032675;28;20025;-64
2021/11/28 02:27:45;;;;;;;9.43;1.13;;;;;;;-149.78;100.00;50561.41;5021777;28;20121;-64
2021/11/28 02:30:13;;;;;;;4.47;1.80;;;;;;;-149.78;100.00;50537.94;5033074;28;20552;-64
2021/11/28 02:32:39;;;;;;;6.78;1.10;;;;;;;-149.78;100.00;50571.19;5022396;28;20386;-64
2021/11/28 02:35:05;;;;;;;4.43;1.02;;;;;;;-149.78;100.00;50553.59;5034308;28;20033;-64
2021/11/28 02:37:31;;;;;;;3.65;0.88;;;;;;;-149.78;100.00;50580.97;5029609;28;20034;-64
2021/11/28 02:39:58;;;;;;;3.22;1.20;;;;;;;-149.78;100.00;50534.03;5024837;28;20037;-64
2021/11/28 02:42:25;;;;;;;5.88;0.90;;;;;;;-149.78;100.00;50582.94;5032437;28;20038;-64
2021/11/28 02:44:51;;;;;;;5.80;0.85;;;;;;;-149.78;100.00;50545.75;5032069;28;20370;-64
2021/11/28 02:47:19;;;;;;;6.15;1.10;;;;;;;-149.78;100.00;50580.97;5032582;28;20135;-64
2021/11/28 02:49:45;;;;;;;6.68;0.90;;;;;;;-149.78;100.00;50600.53;5030567;28;20471;-64
2021/11/28 02:52:12;;;;;;;4.00;0.95;;;;;;;-149.78;100.00;50596.63;5029815;28;20065;-64
2021/11/28 02:54:38;;;;;;;5.47;0.80;;;;;;;-149.78;100.00;50608.34;5030289;28;20480;-64
2021/11/28 02:57:07;;;;;;;5.05;0.75;;;;;;;-149.78;100.00;50573.16;5033237;28;20380;-64
2021/11/28 02:59:33;;;;;;;3.97;1.08;;;;;;;-149.78;100.00;50580.97;5034698;28;20413;-64
2021/11/28 03:01:59;;;;;;;2.00;0.73;;;;;;;-149.78;100.00;50565.31;5034558;28;20041;-64
2021/11/28 03:04:25;;;;;;;2.30;0.80;;;;;;;-149.78;100.00;50575.09;5029732;28;20056;-64
2021/11/28 03:06:50;;;;;;;2.92;0.80;;;;;;;-149.78;100.00;50575.09;5034182;28;20053;-64
2021/11/28 03:09:17;;;;;;;7.93;0.98;;;;;;;-149.78;100.00;50580.97;5034443;28;20083;-64
2021/11/28 03:11:43;;;;;;;7.10;1.35;;;;;;;-149.78;100.00;50596.63;5029589;28;20036;-64
2021/11/28 03:14:09;;;;;;;4.68;0.50;;;;;;;-149.78;100.00;50582.94;5029056;28;20468;-64
2021/11/28 03:16:35;;;;;;;4.13;0.95;;;;;;;-149.78;100.00;50526.22;5033342;28;20036;-64
2021/11/28 03:19:00;;;;;;;8.00;1.13;;;;;;;-149.78;100.00;50577.06;5034086;28;20041;-64
2021/11/28 03:21:29;;;;;;;6.10;0.70;;;;;;;-149.78;100.00;50594.66;5033253;28;20049;-64
2021/11/28 03:23:57;;;;;;;3.28;0.73;;;;;;;-149.78;100.00;50569.22;5032645;28;20044;-64
2021/11/28 03:26:29;;;;;;;3.17;0.75;;;;;;;-149.78;100.00;50537.94;5032411;28;20064;-64
2021/11/28 03:28:58;;;;;;;4.85;0.95;;;;;;;-149.78;100.00;50575.09;5021099;28;20087;-64
2021/11/28 03:31:25;;;;;;;2.95;0.85;;;;;;;-149.78;100.00;50608.34;5033159;28;20044;-64
2021/11/28 03:33:51;;;;;;;1.60;0.60;;;;;;;-149.78;100.00;50571.19;5027616;28;20501;-64
2021/11/28 03:36:20;;;;;;;3.22;0.75;;;;;;;-149.78;100.00;50604.44;5031464;28;20025;-64
2021/11/28 03:38:47;;;;;;;4.05;0.80;;;;;;;-149.78;100.00;50563.38;5031977;28;20509;-64
2021/11/28 03:41:14;;;;;;;5.35;0.60;;;;;;;-149.78;100.00;50561.41;5033187;28;20553;-64
2021/11/28 03:43:40;;;;;;;2.90;0.82;;;;;;;-149.78;100.00;50563.38;5032985;28;20113;-64
2021/11/28 03:46:07;;;;;;;3.75;0.77;;;;;;;-149.78;100.00;50571.19;5032053;28;20112;-64
2021/11/28 03:48:33;;;;;;;2.63;0.60;;;;;;;-149.78;100.00;50553.59;5033139;28;20087;-64
2021/11/28 03:50:58;;;;;;;3.05;0.80;;;;;;;-149.78;100.00;50561.41;5031647;28;20045;-64
2021/11/28 03:53:24;;;;;;;2.70;0.80;;;;;;;-149.78;100.00;50557.50;5032449;28;20064;-64
2021/11/28 03:55:51;;;;;;;3.38;1.00;;;;;;;-149.78;100.00;50606.41;5032119;28;20437;-64
2021/11/28 03:58:17;;;;;;;4.90;0.80;;;;;;;-149.78;100.00;50588.78;5031726;28;20033;-64
2021/11/28 04:00:44;;;;;;;7.57;1.02;;;;;;;-149.78;100.00;50600.53;5026548;28;20073;-64
2021/11/28 04:03:10;;;;;;;2.75;0.80;;;;;;;-149.78;100.00;50571.19;5024721;28;20033;-64
2021/11/28 04:05:37;;;;;;;4.15;0.82;;;;;;;-149.78;100.00;50608.34;5039365;28;20033;-64
2021/11/28 04:08:03;;;;;;;3.70;0.85;;;;;;;-149.78;100.00;50592.72;5030631;28;20048;-64
2021/11/28 04:10:28;;;;;;;3.38;0.75;;;;;;;-149.78;100.00;50580.97;5032685;28;20033;-64
2021/11/28 04:12:54;;;;;;;3.22;0.98;;;;;;;-149.78;100.00;50561.41;5034416;28;20037;-64
2021/11/28 04:15:20;;;;;;;3.70;0.73;;;;;;;-149.78;100.00;50565.31;5033198;28;20381;-64
2021/11/28 04:17:45;;;;;;;3.15;0.75;;;;;;;-149.78;100.00;50561.41;5035850;28;20097;-64
2021/11/28 04:20:11;;;;;;;8.50;0.95;;;;;;;-149.78;100.00;50561.41;5028468;28;20045;-64
2021/11/28 04:22:37;;;;;;;8.57;1.50;;;;;;;-149.78;100.00;50594.66;5029216;28;20044;-64
2021/11/28 04:25:06;;;;;;;2.03;0.60;;;;;;;-149.78;100.00;50573.16;5031047;28;20041;-64
2021/11/28 04:27:31;;;;;;;1.20;0.70;;;;;;;-149.78;100.00;50569.22;5031672;28;20029;-64
2021/11/28 04:29:57;;;;;;;3.88;0.95;;;;;;;-149.78;100.00;50577.06;5033013;28;20052;-64
2021/11/28 04:32:22;;;;;;;2.72;0.65;;;;;;;-149.78;100.00;50571.19;5032751;28;20084;-64
2021/11/28 04:34:48;;;;;;;4.82;1.10;;;;;;;-149.78;100.00;50553.59;5020345;28;20041;-64
2021/11/28 04:37:13;;;;;;;5.78;0.77;;;;;;;-149.78;100.00;50598.56;5030611;28;20037;-64
2021/11/28 04:39:39;;;;;;;2.63;0.80;;;;;;;-149.78;100.00;50580.97;5027517;28;20042;-64
2021/11/28 04:42:06;;;;;;;4.03;0.80;;;;;;;-149.78;100.00;50582.94;5032037;28;20428;-64
2021/11/28 04:44:32;;;;;;;1.38;0.60;;;;;;;-149.78;100.00;50592.72;5031079;28;20192;-64
2021/11/28 04:46:58;;;;;;;5.82;0.90;;;;;;;-149.78;100.00;50606.41;5032907;28;20120;-64
2021/11/28 04:49:24;;;;;;;2.22;0.70;;;;;;;-149.78;100.00;50592.72;5031590;28;20607;-64
2021/11/28 04:51:51;;;;;;;3.70;0.80;;;;;;;-149.78;100.00;50612.25;5031452;28;20381;-64
2021/11/28 04:54:17;;;;;;;4.93;0.90;;;;;;;-149.78;100.00;50584.88;5031957;28;20041;-64
2021/11/28 04:56:43;;;;;;;0.77;0.52;;;;;;;-149.78;100.00;50594.66;5027029;28;20029;-64
2021/11/28 04:59:09;;;;;;;5.18;0.45;;;;;;;-149.78;100.00;50557.50;5018465;28;20030;-64
2021/11/28 05:01:35;;;;;;;6.10;0.80;;;;;;;-149.78;100.00;50549.69;5019066;28;20508;-64
2021/11/28 05:04:01;;;;;;;3.28;0.80;;;;;;;-149.78;100.00;50541.84;5026774;28;20339;-64
2021/11/28 05:06:27;;;;;;;3.45;0.85;;;;;;;-149.78;100.00;50543.81;5024099;28;20044;-64
2021/11/28 05:08:53;;;;;;;1.63;0.50;;;;;;;-149.78;100.00;50579.00;5025969;28;20124;-64
2021/11/28 05:11:19;;;;;;;0.63;0.55;;;;;;;-149.78;100.00;50577.06;5031701;28;20040;-64
2021/11/28 05:13:45;;;;;;;4.00;0.70;;;;;;;-149.78;100.00;50553.59;5027581;28;20042;-64
2021/11/28 05:16:10;;;;;;;4.25;0.80;;;;;;;-149.78;100.00;50577.06;5032690;28;20041;-64
2021/11/28 05:18:36;;;;;;;4.57;1.02;;;;;;;-149.78;100.00;50549.69;5032655;28;20412;-64
2021/11/28 05:21:02;;;;;;;2.47;0.68;;;;;;;-149.78;100.00;50569.22;5030980;28;20132;-64
2021/11/28 05:23:29;;;;;;;3.80;0.75;;;;;;;-149.78;100.00;50582.94;5031036;28;20041;-64
2021/11/28 05:25:54;;;;;;;5.20;0.77;;;;;;;-149.78;100.00;50557.50;5036264;28;20038;-64
2021/11/28 05:28:20;;;;;;;2.63;0.40;;;;;;;-149.78;100.00;50577.06;5035580;28;20036;-64
2021/11/28 05:30:46;;;;;;;5.15;0.73;;;;;;;-149.78;100.00;50616.19;5033196;28;20091;-64
2021/11/28 05:33:12;;;;;;;3.38;0.70;;;;;;;-149.78;100.00;50557.50;5034639;28;20484;-64
2021/11/28 05:35:37;;;;;;;6.30;0.80;;;;;;;-149.78;100.00;50557.50;5034769;28;20037;-64
2021/11/28 05:38:03;;;;;;;4.88;0.40;;;;;;;-149.78;100.00;50555.53;5029981;28;20066;-64
2021/11/28 05:40:29;;;;;;;2.67;0.52;;;;;;;-149.78;100.00;50588.78;5036256;28;20029;-64
2021/11/28 05:42:55;;;;;;;3.03;0.50;;;;;;;-149.78;100.00;50586.84;5035324;28;20361;-64
2021/11/28 05:45:24;;;;;;;3.70;0.50;;;;;;;-149.78;100.00;50577.06;5030828;28;20140;-63
2021/11/28 05:47:50;;;;;;;1.20;0.30;;;;;;;-149.78;100.00;50545.75;5035603;28;20108;-64
2021/11/28 05:50:18;;;;;;;3.50;0.60;;;;;;;-149.78;100.00;50608.34;5040693;28;20034;-64
2021/11/28 05:52:46;;;;;;;2.88;0.68;;;;;;;-149.78;100.00;50579.00;5024519;28;20063;-64
2021/11/28 05:55:12;;;;;;;3.92;0.60;;;;;;;-149.78;100.00;50561.41;5017323;28;20477;-64
2021/11/28 05:57:37;;;;;;;2.70;0.68;;;;;;;-149.78;100.00;50559.47;5027974;28;20045;-64
2021/11/28 06:00:05;;;;;;;1.00;0.40;;;;;;;-149.78;100.00;50586.84;5035144;28;20037;-63
2021/11/28 06:02:31;;;;;;;3.60;0.50;;;;;;;-149.78;100.00;50584.88;5035159;28;20044;-64
2021/11/28 06:04:57;;;;;;;2.63;0.80;;;;;;;-149.78;100.00;50565.31;5034710;28;20435;-64
2021/11/28 06:07:23;;;;;;;1.30;0.82;;;;;;;-149.78;100.00;50594.66;5033587;28;20416;-64
2021/11/28 06:09:48;;;;;;;0.70;0.47;;;;;;;-149.78;100.00;50541.84;5034118;28;20047;-64
2021/11/28 06:12:14;;;;;;;1.40;0.35;;;;;;;-149.78;100.00;50602.47;5030878;28;20469;-64
2021/11/28 06:14:39;;;;;;;2.85;0.60;;;;;;;-149.78;100.00;50573.16;5034696;28;20021;-64
2021/11/28 06:17:06;;;;;;;8.27;0.77;;;;;;;-149.78;100.00;50541.84;5034534;28;20038;-64
2021/11/28 06:19:32;;;;;;;1.77;0.80;;;;;;;-149.78;100.00;50577.06;5033466;28;20033;-64
2021/11/28 06:21:57;;;;;;;1.50;0.70;;;;;;;-149.78;100.00;50592.72;5034684;28;20512;-64
2021/11/28 06:24:23;;;;;;;4.35;0.70;;;;;;;-149.78;100.00;50600.53;5034941;28;20029;-64
2021/11/28 06:26:49;;;;;;;1.00;0.70;;;;;;;-149.78;100.00;50592.72;5035169;28;20033;-63
2021/11/28 06:29:14;;;;;;;1.48;0.80;;;;;;;-149.78;100.00;50584.88;5031059;28;20041;-63
2021/11/28 06:31:40;;;;;;;2.47;0.70;;;;;;;-149.78;100.00;50577.06;5037143;28;20052;-64
2021/11/28 06:34:06;;;;;;;3.83;1.02;;;;;;;-149.78;100.00;50569.22;5033775;28;20042;-63
2021/11/28 06:36:32;;;;;;;2.78;0.57;;;;;;;-149.78;100.00;50580.97;5034706;28;20468;-64
2021/11/28 06:38:58;;;;;;;1.23;0.60;;;;;;;-149.78;100.00;50559.47;5030391;28;20459;-64
2021/11/28 06:41:26;;;;;;;0.82;0.60;;;;;;;-149.78;100.00;50592.72;5034676;28;20112;-64
2021/11/28 06:43:54;;;;;;;4.53;0.80;;;;;;;-149.78;100.00;50579.00;5026078;28;20111;-64
2021/11/28 06:46:20;;;;;;;2.78;0.70;;;;;;;-149.78;100.00;50590.75;5034400;28;20079;-64
2021/11/28 06:48:45;;;;;;;2.35;0.80;;;;;;;-149.78;100.00;50557.50;5034202;28;20037;-64
2021/11/28 06:51:12;;;;;;;1.80;0.50;;;;;;;-149.78;100.00;50565.31;5033188;28;20045;-64
2021/11/28 06:53:37;;;;;;;2.83;0.55;;;;;;;-149.78;100.00;50557.50;5030847;28;20069;-64
2021/11/28 06:56:04;;;;;;;5.40;0.60;;;;;;;-149.78;100.00;50559.47;5015552;28;20064;-64
2021/11/28 06:58:33;;;;;;;1.95;0.63;;;;;;;-149.78;100.00;50575.09;5027887;28;20029;-64
2021/11/28 07:00:59;;;;;;;2.45;1.00;;;;;;;-149.78;100.00;50580.97;5028922;28;20358;-64
2021/11/28 07:03:25;;;;;;;1.95;0.60;;;;;;;-149.78;100.00;50600.53;5026200;28;20049;-64
2021/11/28 07:05:51;;;;;;;3.47;0.77;;;;;;;-149.78;100.00;50561.41;5029841;28;20044;-64
2021/11/28 07:08:17;;;;;;;3.00;0.43;;;;;;;-149.78;100.00;50596.63;5021942;28;20045;-64
2021/11/28 07:10:43;;;;;;;4.70;0.82;;;;;;;-149.78;100.00;50565.31;5023422;28;20080;-64
2021/11/28 07:13:09;;;;;;;1.48;0.45;;;;;;;-149.78;100.00;50584.88;5018366;28;20033;-64
2021/11/28 07:15:36;;;;;;;0.50;0.50;;;;;;;-149.78;100.00;50584.88;5024672;28;20037;-64
2021/11/28 07:18:04;;;;;;;3.00;0.80;;;;;;;-149.78;100.00;50620.09;5017457;28;20065;-63
2021/11/28 07:20:31;;;;;;;0.75;0.40;;;;;;;-149.78;100.00;50598.56;5022459;28;20500;-64
2021/11/28 07:23:02;;;;;;;1.38;0.70;;;;;;;-149.78;100.00;50553.59;5020934;28;20042;-63
2021/11/28 07:25:28;;;;;;;0.98;0.45;;;;;;;-149.78;100.00;50553.59;5017362;28;20029;-63
2021/11/28 07:27:56;;;;;;;2.63;1.00;;;;;;;-149.78;100.00;50549.69;5019584;28;20025;-63
2021/11/28 07:30:23;;;;;;;1.73;1.00;;;;;;;-149.78;100.00;50565.31;5015147;28;20095;-63
2021/11/28 07:32:49;;;;;;;1.27;0.50;;;;;;;-149.78;100.00;50584.88;5017270;28;20543;-62
2021/11/28 07:35:15;;;;;;;4.10;0.85;;;;;;;-149.78;100.00;50563.38;5015197;28;20038;-62
2021/11/28 07:37:41;;;;;;;5.38;0.73;;;;;;;-149.78;100.00;50606.41;5016637;28;20045;-62
2021/11/28 07:40:08;;;;;;;2.05;0.65;;;;;;;-149.78;100.00;50580.97;5017250;28;20397;-63
2021/11/28 07:42:33;;;;;;;4.28;0.60;;;;;;;-149.78;100.00;50584.88;5018090;28;20025;-63
2021/11/28 07:44:59;;;;;;;3.67;0.77;;;;;;;-149.78;100.00;50582.94;5018661;28;20465;-64
2021/11/28 07:47:24;;;;;;;3.80;0.70;;;;;;;-149.78;100.00;50534.03;5017273;28;20025;-64
2021/11/28 07:49:50;;;;;;;1.67;0.47;;;;;;;-149.78;100.00;50573.16;5020711;28;20730;-64
2021/11/28 07:52:16;;;;;;;3.92;0.70;;;;;;;-149.78;100.00;50579.00;5019474;28;20531;-64
2021/11/28 07:54:42;;;;;;;3.35;1.17;;;;;;;-149.78;100.00;50561.41;5017501;28;20082;-64
2021/11/28 07:57:08;;;;;;;2.75;0.80;;;;;;;-149.78;100.00;50600.53;5020681;28;20125;-64
2021/11/28 07:59:34;;;;;;;0.55;0.40;;;;;;;-149.78;100.00;50573.16;5021166;28;20037;-64
2021/11/28 08:02:00;;;;;;;6.72;0.70;;;;;;;-149.78;100.00;50553.59;5022423;28;20463;-64
2021/11/28 08:04:26;;;;;;;0.60;0.60;;;;;;;-149.78;100.00;50592.72;5022562;28;20113;-64
2021/11/28 08:06:52;;;;;;;3.88;0.47;;;;;;;-149.78;100.00;50600.53;5022860;28;20354;-64
2021/11/28 08:09:18;;;;;;;1.20;0.57;;;;;;;-149.78;100.00;50549.69;5022666;28;20056;-65
2021/11/28 08:11:44;;;;;;;2.15;0.47;;;;;;;-149.78;100.00;50543.81;5023944;28;20033;-64
2021/11/28 08:14:10;;;;;;;0.85;0.30;;;;;;;-149.78;100.00;50573.16;5020616;28;20026;-64
2021/11/28 08:16:35;;;;;;;1.25;0.60;;;;;;;-149.78;100.00;50592.72;5019537;28;20104;-64
2021/11/28 08:19:03;;;;;;;2.42;0.60;;;;;;;-149.78;100.00;50573.16;5021989;28;20092;-64
2021/11/28 08:21:28;;;;;;;2.78;0.60;;;;;;;-149.78;100.00;50569.22;5016718;28;20062;-63
2021/11/28 08:23:56;;;;;;;2.95;0.65;;;;;;;-149.78;100.00;50600.53;5019397;28;20496;-64
2021/11/28 08:26:22;;;;;;;2.42;0.70;;;;;;;-149.78;100.00;50608.34;5017887;28;20337;-63
2021/11/28 08:28:48;;;;;;;6.20;0.88;;;;;;;-149.78;100.00;50547.72;5020428;28;20712;-64
2021/11/28 08:31:15;;;;;;;3.33;0.70;;;;;;;-149.78;100.00;50573.16;5015160;28;20026;-64
2021/11/28 08:33:40;;;;;;;2.80;0.73;;;;;;;-149.78;100.00;50573.16;5014812;28;20065;-64
2021/11/28 08:36:07;;;;;;;5.18;0.93;;;;;;;-149.78;100.00;50553.59;5022392;28;20038;-64
2021/11/28 08:38:33;;;;;;;3.95;0.70;;;;;;;-149.78;100.00;50549.69;5023427;28;20049;-64
2021/11/28 08:40:59;;;;;;;1.00;0.60;;;;;;;-149.78;100.00;50549.69;5015313;28;20049;-63
2021/11/28 08:43:24;;;;;;;8.00;0.98;;;;;;;-149.78;100.00;50573.16;5013477;28;20026;-63
2021/11/28 08:45:51;;;;;;;2.75;0.52;;;;;;;-149.78;100.00;50582.94;5020358;28;20377;-63
2021/11/28 08:48:17;;;;;;;2.90;0.77;;;;;;;-149.78;100.00;50561.41;5029834;28;20037;-63
2021/11/28 08:50:44;;;;;;;3.15;0.70;;;;;;;-149.78;100.00;50565.31;5030280;28;20026;-64
2021/11/28 08:53:10;;;;;;;3.60;0.80;;;;;;;-149.78;100.00;50580.97;5030329;28;20121;-67
2021/11/28 08:55:37;;;;;;;5.60;0.93;;;;;;;-149.78;100.00;50577.06;5031930;28;20042;-64
2021/11/28 08:58:03;;;;;;;3.95;0.80;;;;;;;-149.78;100.00;50545.75;5017890;28;20046;-64
2021/11/28 09:00:30;;;;;;;4.68;0.90;;;;;;;-149.78;100.00;50563.38;5017741;28;20042;-64
2021/11/28 09:02:56;;;;;;;2.55;1.10;;;;;;;-149.78;100.00;50577.06;5020512;28;20048;-64
2021/11/28 09:05:24;;;;;;;3.63;1.10;;;;;;;-149.78;100.00;50534.03;5017022;28;20026;-64
2021/11/28 09:07:50;;;;;;;3.25;1.13;;;;;;;-149.78;100.00;50541.84;5013652;28;20034;-64
2021/11/28 09:10:17;;;;;;;5.25;1.08;;;;;;;-149.78;100.00;50537.94;5017171;28;20120;-64
2021/11/28 09:12:43;;;;;;;1.23;0.63;;;;;;;-149.78;100.00;50584.88;5023214;28;20111;-64
2021/11/28 09:15:11;;;;;;;5.32;1.20;;;;;;;-149.78;100.00;50549.69;5016451;28;20042;-64
2021/11/28 09:17:41;;;;;;;4.45;1.00;;;;;;;-149.78;100.00;50600.53;5022412;28;20034;-64
2021/11/28 09:20:09;;;;;;;3.15;0.90;;;;;;;-149.78;100.00;50549.69;5018671;28;20056;-64
2021/11/28 09:25:15;;;;;;;5.13;0.52;;;;;;;-149.78;100.00;50539.91;5021720;28;20416;-64
2021/11/28 09:27:42;;;;;;;1.10;0.63;;;;;;;-149.78;100.00;50549.69;5023451;28;20040;-65
2021/11/28 09:30:08;;;;;;;3.10;0.73;;;;;;;-149.78;100.00;50545.75;5026100;28;20041;-64
2021/11/28 09:32:34;;;;;;;0.95;0.50;;;;;;;-149.78;100.00;50565.31;5028426;28;20073;-64
2021/11/28 09:34:59;;;;;;;1.65;0.65;;;;;;;-149.78;100.00;50534.03;5030762;28;20057;-65
2021/11/28 09:37:25;;;;;;;0.80;0.50;;;;;;;-149.78;100.00;50526.22;5029927;28;20045;-65
2021/11/28 09:39:51;;;;;;;2.35;0.90;;;;;;;-149.78;100.00;50514.47;5030097;28;20402;-64
2021/11/28 09:42:21;;;;;;;2.67;0.68;;;;;;;-149.78;100.00;50534.03;5026926;28;20064;-65
2021/11/28 09:44:48;;;;;;;4.30;0.82;;;;;;;-149.78;100.00;50514.47;5027991;28;20053;-64
2021/11/28 09:47:14;;;;;;;3.58;0.80;;;;;;;-149.78;100.00;50534.03;5020462;28;20087;-63
2021/11/28 09:49:44;;;;;;;2.65;0.75;;;;;;;-149.78;100.00;50537.94;5021400;28;20080;-63
2021/11/28 09:52:19;;;;;;;3.33;1.08;;;;;;;-149.78;100.00;50483.19;5017824;28;20038;-63
2021/11/28 09:54:46;;;;;;;6.25;1.15;;;;;;;-149.78;100.00;50543.81;5024096;28;20064;-63
2021/11/28 09:57:22;;;;;;;1.80;0.57;;;;;;;-149.78;100.00;50530.13;5024275;28;20466;-63
2021/11/28 09:59:50;;;;;;;2.78;0.90;;;;;;;-149.78;100.00;50530.13;5025861;28;20657;-63
2021/11/28 10:02:27;;;;;;;2.30;0.70;;;;;;;-149.78;100.00;50537.94;5018806;28;20026;-63
2021/11/28 10:04:54;;;;;;;2.00;0.98;;;;;;;-149.78;100.00;50549.69;5025897;28;20037;-64
2021/11/28 10:07:21;;;;;;;3.58;0.95;;;;;;;-149.78;100.00;50545.75;5025612;28;20103;-64
2021/11/28 10:09:47;;;;;;;3.33;1.25;;;;;;;-149.78;100.00;50514.47;5024072;28;20022;-64
2021/11/28 10:12:23;;;;;;;6.10;1.80;;;;;;;-149.78;100.00;50496.88;5022935;28;20069;-64
2021/11/28 10:15:04;;;;;;;3.38;1.20;;;;;;;-149.78;100.00;50530.13;5023087;28;20037;-64
2021/11/28 10:17:31;;;;;;;7.07;1.10;;;;;;;-149.78;100.00;50535.97;5024745;28;20034;-65
2021/11/28 10:19:59;;;;;;;7.15;1.80;;;;;;;-149.78;100.00;50487.09;5022766;28;20036;-64
2021/11/28 10:22:26;;;;;;;2.55;1.40;;;;;;;-149.78;100.00;50491.00;5021926;28;20512;-64
2021/11/28 10:25:15;;;;;;;3.05;1.20;;;;;;;-149.78;100.00;50534.03;5023708;28;20064;-64
2021/11/28 10:27:44;;;;;;;1.77;1.02;;;;;;;-149.78;100.00;50514.47;5034172;28;20112;-63
2021/11/28 10:30:17;;;;;;;3.05;1.17;;;;;;;-149.78;100.00;50494.91;5034174;28;20508;-63
2021/11/28 10:32:48;;;;;;;2.22;1.23;;;;;;;-149.78;100.00;50535.97;5033498;28;20045;-64
2021/11/28 10:35:14;;;;;;;4.63;1.30;;;;;;;-149.78;100.00;50514.47;5030196;28;20029;-62
2021/11/28 10:37:46;;;;;;;3.97;0.95;;;;;;;-149.78;100.00;50510.56;5028422;28;20481;-62
2021/11/28 10:40:19;;;;;;;3.85;0.98;;;;;;;-149.78;100.00;50547.72;5024674;28;20029;-61
2021/11/28 10:42:50;;;;;;;1.50;0.60;;;;;;;-149.78;100.00;50534.03;5029533;28;20120;-62
2021/11/28 10:45:19;;;;;;;1.67;0.77;;;;;;;-149.78;100.00;50506.66;5030095;28;20030;-62
2021/11/28 10:47:56;;;;;;;1.85;0.80;;;;;;;-149.78;100.00;50526.22;5032224;28;20480;-62
2021/11/28 10:50:26;;;;;;;2.00;1.00;;;;;;;-149.78;100.00;50522.28;5028104;28;20465;-62
2021/11/28 10:53:02;;;;;;;2.75;0.80;;;;;;;-149.78;100.00;50541.84;5033907;28;20022;-62
2021/11/28 10:55:36;;;;;;;2.72;1.00;;;;;;;-149.78;100.00;50496.88;5028345;28;20699;-62
2021/11/28 10:58:06;;;;;;;1.85;0.85;;;;;;;-149.78;100.00;50526.22;5029745;28;20428;-62
2021/11/28 11:00:34;;;;;;;5.18;1.02;;;;;;;-149.78;100.00;50534.03;5032031;28;20049;-62
2021/11/28 11:03:13;;;;;;;4.97;1.20;;;;;;;-149.78;100.00;50520.34;5029536;28;20026;-62
2021/11/28 11:05:39;;;;;;;3.83;0.90;;;;;;;-149.78;100.00;50526.22;5026250;28;20037;-63
2021/11/28 11:08:05;;;;;;;2.65;0.80;;;;;;;-149.78;100.00;50510.56;5026896;28;20096;-63
2021/11/28 11:10:33;;;;;;;2.10;0.95;;;;;;;-149.78;100.00;50534.03;5028987;28;20087;-63
2021/11/28 11:12:59;;;;;;;3.28;0.93;;;;;;;-149.78;100.00;50491.00;5029195;28;20030;-63
2021/11/28 11:15:38;;;;;;;0.85;0.60;;;;;;;-149.78;100.00;50514.47;5024967;28;20099;-63